createdAt,value
2023-03-01T00:01:25.256Z,100932.61
2023-03-01T00:03:54.132Z,100934.39
2023-03-01T00:06:22.455Z,100933.55
2023-03-01T00:08:50.675Z,100929.14
2023-03-01T00:11:22.021Z,100927.27
2023-03-01T00:13:51.060Z,100917.77
2023-03-01T00:16:20.306Z,100909.21
2023-03-01T00:18:49.187Z,100904.90
2023-03-01T00:21:17.970Z,100902.11
2023-03-01T00:23:46.494Z,100903.23
2023-03-01T00:26:15.258Z,100901.23
2023-03-01T00:28:44.122Z,100897.75
2023-03-01T00:31:19.828Z,100898.74
2023-03-01T00:33:48.141Z,100902.14
2023-03-01T00:36:16.510Z,100899.17
2023-03-01T00:38:46.390Z,100902.69
2023-03-01T00:41:15.503Z,100903.06
2023-03-01T00:43:44.365Z,100899.14
2023-03-01T00:46:17.035Z,100895.30
2023-03-01T00:48:45.556Z,100889.53
2023-03-01T00:51:15.013Z,100882.52
2023-03-01T00:53:43.397Z,100880.63
2023-03-01T00:56:12.759Z,100875.03
2023-03-01T00:58:41.784Z,100870.27
2023-03-01T01:01:18.432Z,100866.82
2023-03-01T01:03:47.140Z,100869.73
2023-03-01T01:06:16.390Z,100876.59
2023-03-01T01:08:45.380Z,100873.16
2023-03-01T01:11:13.955Z,100866.70
2023-03-01T01:13:42.532Z,100861.73
2023-03-01T01:16:11.452Z,100864.58
2023-03-01T01:18:40.119Z,100864.77
2023-03-01T01:21:09.436Z,100870.77
2023-03-01T01:23:38.057Z,100882.38
2023-03-01T01:26:14.088Z,100880.77
2023-03-01T01:28:42.629Z,100877.63
2023-03-01T01:31:15.523Z,100867.99
2023-03-01T01:33:45.295Z,100862.42
2023-03-01T01:36:13.568Z,100867.78
2023-03-01T08:25:08.453Z,100685.71
2023-03-01T08:27:37.156Z,100691.23
2023-03-01T08:30:08.733Z,100685.95
2023-03-01T08:32:40.954Z,100680.91
2023-03-01T08:35:12.968Z,100683.13
2023-03-01T08:37:41.339Z,100682.77
2023-03-01T08:40:11.176Z,100676.23
2023-03-01T08:42:43.881Z,100670.10
2023-03-01T08:45:12.552Z,100658.22
2023-03-01T08:47:41.025Z,100663.44
2023-03-01T08:50:09.795Z,100657.73
2023-03-01T08:52:38.161Z,100652.04
2023-03-01T08:55:09.467Z,100640.48
2023-03-01T08:57:37.730Z,100634.52
2023-03-01T09:00:09.769Z,100634.10
2023-03-01T09:02:38.299Z,100632.04
2023-03-01T09:05:06.697Z,100626.06
2023-03-01T09:07:38.220Z,100627.31
2023-03-01T09:10:07.314Z,100619.42
2023-03-01T09:12:35.602Z,100612.83
2023-03-01T09:15:03.952Z,100611.55
2023-03-01T09:17:33.114Z,100615.28
2023-03-01T09:20:01.295Z,100610.98
2023-03-01T09:22:36.585Z,100611.40
2023-03-01T09:25:05.029Z,100612.81
2023-03-01T09:27:34.164Z,100600.41
2023-03-01T09:30:02.901Z,100601.38
2023-03-01T09:32:37.842Z,100599.48
2023-03-01T09:35:06.380Z,100597.60
2023-03-01T09:37:34.815Z,100599.30
2023-03-01T09:40:05.661Z,100585.31
2023-03-01T09:42:35.242Z,100580.34
2023-03-01T09:45:26.352Z,100578.48
2023-03-01T09:47:54.780Z,100578.06
2023-03-01T09:50:23.049Z,100574.86
2023-03-01T09:53:23.700Z,100573.84
2023-03-01T09:56:01.778Z,100566.11
2023-03-01T09:58:49.523Z,100561.46
2023-03-01T10:01:37.477Z,100557.52
2023-03-01T10:04:18.158Z,100560.02
2023-03-01T10:06:50.236Z,100552.75
2023-03-01T10:09:19.212Z,100548.40
2023-03-01T10:11:51.508Z,100541.28
2023-03-01T10:14:19.890Z,100542.58
2023-03-01T10:16:49.985Z,100541.54
2023-03-01T10:19:28.505Z,100535.57
2023-03-01T10:21:56.755Z,100530.78
2023-03-01T10:24:28.667Z,100528.04
2023-03-01T10:26:58.380Z,100523.86
2023-03-01T10:29:35.979Z,100513.96
2023-03-01T10:32:04.452Z,100509.05
2023-03-01T10:34:33.176Z,100505.08
2023-03-01T10:37:11.640Z,100502.98
2023-03-01T10:39:55.358Z,100492.30
2023-03-01T10:42:27.055Z,100489.24
2023-03-01T10:44:55.559Z,100475.98
2023-03-01T10:47:26.861Z,100478.23
2023-03-01T10:49:55.221Z,100474.04
2023-03-01T10:52:33.729Z,100473.10
2023-03-01T10:55:05.010Z,100467.02
2023-03-01T10:57:39.435Z,100472.44
2023-03-01T11:00:22.226Z,100468.67
2023-03-01T11:02:51.512Z,100470.14
2023-03-01T11:05:21.473Z,100466.52
2023-03-01T11:07:53.135Z,100465.90
2023-03-01T11:10:44.012Z,100458.38
2023-03-01T11:13:16.827Z,100448.95
2023-03-01T11:15:59.424Z,100442.40
2023-03-01T11:18:44.357Z,100446.20
2023-03-01T11:21:15.497Z,100440.70
2023-03-01T11:23:45.047Z,100442.17
2023-03-01T11:26:13.531Z,100441.64
2023-03-01T11:28:44.351Z,100437.96
2023-03-01T11:31:17.962Z,100434.80
2023-03-01T11:34:01.017Z,100432.31
2023-03-01T11:36:33.910Z,100426.30
2023-03-01T11:39:14.833Z,100427.42
2023-03-01T11:41:43.144Z,100430.23
2023-03-01T11:44:25.287Z,100434.91
2023-03-01T11:47:01.169Z,100431.73
2023-03-01T11:49:29.584Z,100432.22
2023-03-01T11:52:16.463Z,100434.61
2023-03-01T11:54:44.759Z,100430.28
2023-03-01T11:57:44.233Z,100429.40
2023-03-01T12:00:19.034Z,100428.30
2023-03-01T12:02:56.153Z,100410.92
2023-03-01T12:05:37.897Z,100412.31
2023-03-01T12:08:22.753Z,100403.67
2023-03-01T12:10:52.349Z,100408.55
2023-03-01T12:13:34.562Z,100406.66
2023-03-01T12:16:36.297Z,100401.61
2023-03-01T12:19:15.386Z,100402.88
2023-03-01T12:21:43.736Z,100403.41
2023-03-01T12:24:18.041Z,100403.52
2023-03-01T12:26:50.166Z,100396.98
2023-03-01T12:29:32.459Z,100398.92
2023-03-01T12:32:00.770Z,100398.53
2023-03-01T12:34:31.979Z,100392.58
2023-03-01T12:37:00.487Z,100404.41
2023-03-01T12:40:01.465Z,100403.96
2023-03-01T12:42:48.559Z,100397.79
2023-03-01T12:45:16.876Z,100399.57
2023-03-01T12:47:49.964Z,100400.14
2023-03-01T12:50:20.195Z,100390.98
2023-03-01T12:52:50.489Z,100402.70
2023-03-01T12:55:26.122Z,100411.19
2023-03-01T12:58:00.489Z,100416.75
2023-03-01T13:00:30.222Z,100416.80
2023-03-01T13:03:26.565Z,100415.59
2023-03-01T13:06:10.135Z,100416.29
2023-03-01T13:08:39.368Z,100412.11
2023-03-01T13:11:21.987Z,100412.58
2023-03-01T13:13:52.926Z,100417.68
2023-03-01T13:16:52.206Z,100421.94
2023-03-01T13:19:24.374Z,100426.39
2023-03-01T13:21:57.590Z,100423.11
2023-03-01T13:24:25.903Z,100424.13
2023-03-01T13:27:09.398Z,100423.55
2023-03-01T13:29:46.852Z,100427.06
2023-03-01T13:32:34.381Z,100434.16
2023-03-01T13:35:19.113Z,100436.98
2023-03-01T13:37:47.524Z,100440.03
2023-03-01T13:40:23.684Z,100440.85
2023-03-01T13:43:04.560Z,100440.98
2023-03-01T13:45:38.400Z,100437.83
2023-03-01T13:48:10.945Z,100439.15
2023-03-01T13:50:41.740Z,100439.58
2023-03-01T13:53:11.196Z,100447.89
2023-03-01T13:55:43.604Z,100442.17
2023-03-01T13:58:31.696Z,100444.53
2023-03-01T14:01:06.904Z,100447.77
2023-03-01T14:03:42.830Z,100443.57
2023-03-01T14:06:17.742Z,100448.60
2023-03-01T14:08:47.661Z,100455.18
2023-03-01T14:11:16.006Z,100454.41
2023-03-01T14:14:03.356Z,100455.59
2023-03-01T14:16:34.939Z,100456.09
2023-03-01T14:19:31.211Z,100459.31
2023-03-01T14:22:04.113Z,100461.11
2023-03-01T14:24:36.261Z,100469.41
2023-03-01T14:27:04.485Z,100470.04
2023-03-01T14:29:36.826Z,100478.96
2023-03-01T14:32:12.073Z,100478.23
2023-03-01T14:34:43.776Z,100481.65
2023-03-01T14:37:13.367Z,100489.64
2023-03-01T14:39:42.050Z,100494.38
2023-03-01T14:42:15.827Z,100493.63
2023-03-01T14:44:44.895Z,100498.80
2023-03-01T14:47:14.907Z,100503.14
2023-03-01T14:49:43.264Z,100501.13
2023-03-01T14:52:19.657Z,100507.36
2023-03-01T14:54:51.681Z,100514.28
2023-03-01T14:57:20.984Z,100515.38
2023-03-01T14:59:49.961Z,100515.81
2023-03-01T15:02:25.229Z,100523.91
2023-03-01T15:04:57.844Z,100519.52
2023-03-01T15:07:27.882Z,100519.27
2023-03-01T15:09:56.749Z,100525.70
2023-03-01T15:12:45.331Z,100527.30
2023-03-01T15:15:23.007Z,100524.21
2023-03-01T15:17:56.412Z,100522.01
2023-03-01T15:20:27.030Z,100528.52
2023-03-01T15:22:55.420Z,100527.70
2023-03-01T15:25:27.482Z,100534.57
2023-03-01T15:27:56.539Z,100537.42
2023-03-01T15:30:24.951Z,100544.55
2023-03-01T15:33:20.436Z,100549.65
2023-03-01T15:35:54.785Z,100558.80
2023-03-01T15:38:43.997Z,100556.20
2023-03-01T15:41:34.194Z,100560.64
2023-03-01T15:44:15.197Z,100562.16
2023-03-01T15:46:46.621Z,100560.07
2023-03-01T15:49:33.300Z,100567.62
2023-03-01T15:52:01.628Z,100577.25
2023-03-01T15:54:30.411Z,100581.38
2023-03-01T15:56:58.729Z,100583.63
2023-03-01T15:59:26.934Z,100585.39
2023-03-01T16:01:55.107Z,100589.41
2023-03-01T16:04:27.813Z,100580.11
2023-03-01T16:06:56.970Z,100586.02
2023-03-01T16:09:26.601Z,100592.38
2023-03-01T16:11:55.142Z,100600.02
2023-03-01T16:14:23.484Z,100608.79
2023-03-01T16:16:55.236Z,100614.84
2023-03-01T16:19:24.454Z,100616.73
2023-03-01T16:21:52.780Z,100617.61
2023-03-01T16:24:21.109Z,100614.59
2023-03-01T16:26:49.358Z,100612.41
2023-03-01T16:29:17.919Z,100615.31
2023-03-01T16:31:46.256Z,100617.80
2023-03-01T16:34:14.536Z,100616.45
2023-03-01T16:36:43.732Z,100616.98
2023-03-01T16:39:11.964Z,100617.63
2023-03-01T16:41:40.739Z,100620.17
2023-03-01T16:44:08.921Z,100618.46
2023-03-01T16:46:38.548Z,100615.95
2023-03-01T16:49:06.770Z,100615.90
2023-03-01T16:51:36.916Z,100614.18
2023-03-01T16:54:05.774Z,100616.06
2023-03-01T16:56:36.896Z,100616.95
2023-03-01T16:59:06.413Z,100615.64
2023-03-01T17:01:42.342Z,100617.02
2023-03-01T17:04:13.882Z,100616.70
2023-03-01T17:06:42.325Z,100624.89
2023-03-01T17:09:10.857Z,100630.48
2023-03-01T17:11:39.109Z,100624.71
2023-03-01T17:14:07.928Z,100624.94
2023-03-01T17:16:37.056Z,100622.45
2023-03-01T17:19:05.441Z,100621.98
2023-03-01T17:21:34.992Z,100621.52
2023-03-01T17:24:04.083Z,100627.00
2023-03-01T17:26:34.605Z,100627.69
2023-03-01T17:29:03.992Z,100623.89
2023-03-01T17:31:33.554Z,100624.27
2023-03-01T17:34:02.605Z,100625.29
2023-03-01T17:36:31.079Z,100625.66
2023-03-01T17:38:59.713Z,100629.41
2023-03-01T17:41:29.048Z,100627.17
2023-03-01T17:43:57.521Z,100630.24
2023-03-01T17:46:27.143Z,100629.91
2023-03-01T17:48:55.692Z,100625.18
2023-03-01T17:51:44.720Z,100624.09
2023-03-01T17:54:13.390Z,100626.91
2023-03-01T17:56:42.890Z,100627.05
2023-03-01T17:59:11.258Z,100631.34
2023-03-01T18:01:42.832Z,100633.34
2023-03-01T18:04:11.694Z,100633.08
2023-03-01T18:06:41.097Z,100632.39
2023-03-01T18:09:09.474Z,100631.58
2023-03-01T18:11:42.396Z,100635.63
2023-03-01T18:14:10.631Z,100641.07
2023-03-01T18:16:40.115Z,100643.98
2023-03-01T18:19:12.357Z,100650.01
2023-03-01T18:21:44.031Z,100651.24
2023-03-01T18:24:12.276Z,100656.77
2023-03-01T18:26:42.511Z,100659.57
2023-03-01T18:29:10.804Z,100657.14
2023-03-01T18:31:41.923Z,100663.43
2023-03-01T18:34:10.340Z,100663.53
2023-03-01T18:36:41.407Z,100667.41
2023-03-01T18:39:09.754Z,100671.41
2023-03-01T18:41:38.088Z,100671.86
2023-03-01T18:44:07.021Z,100680.59
2023-03-01T18:46:37.924Z,100682.86
2023-03-01T18:49:06.908Z,100685.38
2023-03-01T18:51:36.450Z,100686.55
2023-03-01T18:54:04.823Z,100690.99
2023-03-01T18:56:33.559Z,100691.85
2023-03-01T18:59:04.273Z,100693.71
2023-03-01T19:01:36.676Z,100695.20
2023-03-01T19:04:05.512Z,100695.55
2023-03-01T19:06:34.798Z,100699.29
2023-03-01T19:09:03.405Z,100699.27
2023-03-01T19:11:33.821Z,100702.14
2023-03-01T19:14:02.361Z,100701.76
2023-03-01T19:16:36.024Z,100698.67
2023-03-01T19:19:05.366Z,100706.14
2023-03-01T19:21:34.357Z,100701.78
2023-03-01T19:24:03.031Z,100700.63
2023-03-01T19:26:32.102Z,100698.27
2023-03-01T19:29:06.615Z,100700.63
2023-03-01T19:31:35.719Z,100699.45
2023-03-01T19:34:12.575Z,100692.48
2023-03-01T19:36:43.371Z,100690.94
2023-03-01T19:39:13.909Z,100686.11
2023-03-01T19:41:42.962Z,100686.48
2023-03-01T19:44:12.796Z,100685.85
2023-03-01T19:46:41.119Z,100685.60
2023-03-01T19:49:09.873Z,100687.95
2023-03-01T19:51:39.669Z,100686.82
2023-03-01T19:54:10.086Z,100684.81
2023-03-01T19:56:39.765Z,100689.55
2023-03-01T19:59:07.985Z,100687.95
2023-03-01T20:01:38.067Z,100689.29
2023-03-01T20:04:09.340Z,100686.90
2023-03-01T20:06:38.260Z,100686.66
2023-03-01T20:09:20.308Z,100683.00
2023-03-01T20:11:51.930Z,100680.98
2023-03-01T20:14:24.470Z,100673.52
2023-03-01T20:16:54.435Z,100679.00
2023-03-01T20:19:22.866Z,100676.98
2023-03-01T20:21:53.859Z,100675.76
2023-03-01T20:24:23.189Z,100672.80
2023-03-01T20:26:51.446Z,100674.29
2023-03-01T20:29:20.194Z,100674.30
2023-03-01T20:31:48.536Z,100672.59
2023-03-01T20:34:16.933Z,100674.40
2023-03-01T20:36:46.192Z,100674.45
2023-03-01T20:39:14.756Z,100672.03
2023-03-01T20:41:46.382Z,100673.73
2023-03-01T20:44:18.123Z,100669.35
2023-03-01T20:46:47.181Z,100673.02
2023-03-01T20:49:15.593Z,100675.38
2023-03-01T20:51:44.552Z,100672.06
2023-03-01T20:54:14.149Z,100677.61
2023-03-01T20:56:43.327Z,100685.78
2023-03-01T20:59:11.500Z,100693.34
2023-03-01T21:01:40.478Z,100695.82
2023-03-01T21:04:10.198Z,100690.48
2023-03-01T21:06:39.801Z,100686.14
2023-03-01T21:09:08.532Z,100685.02
2023-03-01T21:11:41.071Z,100681.68
2023-03-01T21:14:09.684Z,100679.40
2023-03-01T21:16:38.117Z,100679.52
2023-03-01T21:19:11.001Z,100681.02
2023-03-01T21:21:39.443Z,100682.04
2023-03-01T21:24:10.767Z,100678.78
2023-03-01T21:26:39.491Z,100680.91
2023-03-01T21:29:07.809Z,100680.15
2023-03-01T21:31:38.820Z,100679.98
2023-03-01T21:34:07.475Z,100677.20
2023-03-01T21:36:36.411Z,100678.95
2023-03-01T21:39:05.518Z,100675.51
2023-03-01T21:41:35.268Z,100667.95
2023-03-01T21:44:03.853Z,100672.52
2023-03-01T21:46:33.649Z,100664.38
2023-03-01T21:49:04.916Z,100669.84
2023-03-01T21:51:33.915Z,100672.36
2023-03-01T21:54:02.270Z,100674.23
2023-03-01T21:56:32.130Z,100674.19
2023-03-01T21:59:01.047Z,100682.10
2023-03-01T22:01:30.443Z,100682.06
2023-03-01T22:03:59.143Z,100683.00
2023-03-01T22:06:29.733Z,100684.24
2023-03-01T22:09:01.706Z,100687.00
2023-03-01T22:11:31.012Z,100684.05
2023-03-01T22:13:59.250Z,100685.72
2023-03-01T22:16:29.184Z,100689.15
2023-03-01T22:18:57.632Z,100690.27
2023-03-01T22:21:26.477Z,100690.96
2023-03-01T22:23:57.760Z,100692.81
2023-03-01T22:26:26.645Z,100691.65
2023-03-01T22:28:55.587Z,100691.34
2023-03-01T22:31:24.056Z,100691.14
2023-03-01T22:33:52.607Z,100686.83
2023-03-01T22:36:20.956Z,100684.23
2023-03-01T22:38:49.804Z,100681.46
2023-03-01T22:41:18.819Z,100683.01
2023-03-01T22:43:47.080Z,100680.30
2023-03-01T22:46:16.302Z,100677.33
2023-03-01T22:48:46.508Z,100676.54
2023-03-01T22:51:21.854Z,100678.69
2023-03-01T22:53:52.102Z,100677.45
2023-03-01T22:56:24.152Z,100681.66
2023-03-01T22:58:52.459Z,100680.95
2023-03-01T23:01:21.781Z,100681.33
2023-03-01T23:03:51.638Z,100676.10
2023-03-01T23:06:20.163Z,100677.68
2023-03-01T23:08:50.155Z,100685.21
2023-03-01T23:11:19.304Z,100684.20
2023-03-01T23:13:47.823Z,100683.69
2023-03-01T23:16:16.616Z,100682.05
2023-03-01T23:18:45.090Z,100680.30
2023-03-01T23:21:15.141Z,100676.61
2023-03-01T23:23:43.999Z,100678.77
2023-03-01T23:26:12.358Z,100679.02
2023-03-01T23:28:41.175Z,100679.55
2023-03-01T23:31:10.709Z,100677.41
2023-03-01T23:33:39.474Z,100674.49
2023-03-01T23:36:08.483Z,100670.27
2023-03-01T23:38:37.861Z,100667.61
2023-03-01T23:41:09.492Z,100662.21
2023-03-01T23:43:37.798Z,100665.18
2023-03-01T23:46:06.459Z,100659.55
2023-03-01T23:48:34.757Z,100655.85
2023-03-01T23:51:12.023Z,100650.44
2023-03-01T23:53:41.803Z,100656.24
2023-03-01T23:56:11.434Z,100658.41
2023-03-01T23:58:40.471Z,100652.23
